sensor_id;sensor_type;location;lat;lon;timestamp;pressure;altitude;pressure_sealevel;temperature
8533;BMP280;4304;53.876;10.662;2022-07-12T00:01:20;115995.09;;;-139.81
8533;BMP280;4304;53.876;10.662;2022-07-12T00:03:46;115995.09;;;-139.81
8533;BMP280;4304;53.876;10.662;2022-07-12T00:06:12;115995.09;;;-139.81
8533;BMP280;4304;53.876;10.662;2022-07-12T00:08:37;115995.09;;;-139.81
8533;BMP280;4304;53.876;10.662;2022-07-12T00:11:04;115995.09;;;-139.81
8533;BMP280;4304;53.876;10.662;2022-07-12T00:13:30;115995.09;;;-139.81
8533;BMP280;4304;53.876;10.662;2022-07-12T00:15:56;115995.09;;;-139.81
8533;BMP280;4304;53.876;10.662;2022-07-12T00:18:23;115995.09;;;-139.81
8533;BMP280;4304;53.876;10.662;2022-07-12T00:20:48;115995.09;;;-139.81
8533;BMP280;4304;53.876;10.662;2022-07-12T00:23:14;115995.09;;;-139.81
8533;BMP280;4304;53.876;10.662;2022-07-12T00:25:40;115995.09;;;-139.81
8533;BMP280;4304;53.876;10.662;2022-07-12T00:28:06;115995.09;;;-139.81
8533;BMP280;4304;53.876;10.662;2022-07-12T00:30:32;115995.09;;;-139.81
8533;BMP280;4304;53.876;10.662;2022-07-12T00:32:57;115995.09;;;-139.81
8533;BMP280;4304;53.876;10.662;2022-07-12T00:35:23;115995.09;;;-139.81
8533;BMP280;4304;53.876;10.662;2022-07-12T00:37:48;115995.09;;;-139.81
8533;BMP280;4304;53.876;10.662;2022-07-12T00:40:14;115995.09;;;-139.81
8533;BMP280;4304;53.876;10.662;2022-07-12T00:42:39;115995.09;;;-139.81
8533;BMP280;4304;53.876;10.662;2022-07-12T00:45:06;115995.09;;;-139.81
8533;BMP280;4304;53.876;10.662;2022-07-12T00:47:39;115995.09;;;-139.81
8533;BMP280;4304;53.876;10.662;2022-07-12T00:50:19;115995.09;;;-139.81
8533;BMP280;4304;53.876;10.662;2022-07-12T00:52:47;115995.09;;;-139.81
8533;BMP280;4304;53.876;10.662;2022-07-12T00:55:14;115995.09;;;-139.81
8533;BMP280;4304;53.876;10.662;2022-07-12T00:57:41;115995.09;;;-139.81
8533;BMP280;4304;53.876;10.662;2022-07-12T01:00:10;115995.09;;;-139.81
8533;BMP280;4304;53.876;10.662;2022-07-12T01:02:36;115995.09;;;-139.81
8533;BMP280;4304;53.876;10.662;2022-07-12T01:05:04;115995.09;;;-139.81
8533;BMP280;4304;53.876;10.662;2022-07-12T01:07:30;115995.09;;;-139.81
8533;BMP280;4304;53.876;10.662;2022-07-12T01:09:55;115995.09;;;-139.81
8533;BMP280;4304;53.876;10.662;2022-07-12T01:12:22;115995.09;;;-139.81
8533;BMP280;4304;53.876;10.662;2022-07-12T01:14:49;115995.09;;;-139.81
8533;BMP280;4304;53.876;10.662;2022-07-12T01:17:17;115995.09;;;-139.81
8533;BMP280;4304;53.876;10.662;2022-07-12T01:19:44;115995.09;;;-139.81
8533;BMP280;4304;53.876;10.662;2022-07-12T01:22:10;115735.44;;;-139.81
8533;BMP280;4304;53.876;10.662;2022-07-12T01:24:39;115995.09;;;-139.81
8533;BMP280;4304;53.876;10.662;2022-07-12T01:27:06;115735.44;;;-139.81
8533;BMP280;4304;53.876;10.662;2022-07-12T01:29:32;115735.44;;;-139.81
8533;BMP280;4304;53.876;10.662;2022-07-12T01:32:02;115735.44;;;-139.81
8533;BMP280;4304;53.876;10.662;2022-07-12T01:34:48;115735.44;;;-139.81
8533;BMP280;4304;53.876;10.662;2022-07-12T01:37:18;115735.44;;;-139.81
8533;BMP280;4304;53.876;10.662;2022-07-12T01:39:49;115735.44;;;-139.81
8533;BMP280;4304;53.876;10.662;2022-07-12T01:42:15;115735.44;;;-139.81
8533;BMP280;4304;53.876;10.662;2022-07-12T01:44:41;115735.44;;;-139.81
8533;BMP280;4304;53.876;10.662;2022-07-12T01:47:06;115735.44;;;-139.81
8533;BMP280;4304;53.876;10.662;2022-07-12T01:49:32;115735.44;;;-139.81
8533;BMP280;4304;53.876;10.662;2022-07-12T01:51:58;115735.44;;;-139.81
8533;BMP280;4304;53.876;10.662;2022-07-12T01:54:24;115735.44;;;-139.81
8533;BMP280;4304;53.876;10.662;2022-07-12T01:56:51;115735.44;;;-139.81
8533;BMP280;4304;53.876;10.662;2022-07-12T01:59:18;115735.44;;;-139.81
8533;BMP280;4304;53.876;10.662;2022-07-12T02:01:45;115735.44;;;-139.81
8533;BMP280;4304;53.876;10.662;2022-07-12T02:04:11;115735.44;;;-139.81
8533;BMP280;4304;53.876;10.662;2022-07-12T02:06:37;115735.44;;;-139.81
8533;BMP280;4304;53.876;10.662;2022-07-12T02:09:04;115735.44;;;-139.81
8533;BMP280;4304;53.876;10.662;2022-07-12T02:11:30;115735.44;;;-139.81
8533;BMP280;4304;53.876;10.662;2022-07-12T02:13:56;115735.44;;;-139.81
8533;BMP280;4304;53.876;10.662;2022-07-12T02:16:21;115735.44;;;-139.81
8533;BMP280;4304;53.876;10.662;2022-07-12T02:18:47;115735.44;;;-139.81
8533;BMP280;4304;53.876;10.662;2022-07-12T02:21:12;115735.44;;;-139.81
8533;BMP280;4304;53.876;10.662;2022-07-12T02:23:38;115735.44;;;-139.81
8533;BMP280;4304;53.876;10.662;2022-07-12T02:26:03;115735.44;;;-139.81
8533;BMP280;4304;53.876;10.662;2022-07-12T02:28:29;115735.44;;;-139.81
8533;BMP280;4304;53.876;10.662;2022-07-12T02:30:55;115735.44;;;-139.81
8533;BMP280;4304;53.876;10.662;2022-07-12T02:33:20;115735.44;;;-139.81
8533;BMP280;4304;53.876;10.662;2022-07-12T02:35:46;115475.81;;;-139.81
8533;BMP280;4304;53.876;10.662;2022-07-12T02:38:12;115475.81;;;-139.81
8533;BMP280;4304;53.876;10.662;2022-07-12T02:40:37;115475.81;;;-139.81
8533;BMP280;4304;53.876;10.662;2022-07-12T02:43:21;115475.81;;;-139.81
8533;BMP280;4304;53.876;10.662;2022-07-12T02:45:47;115475.81;;;-139.81
8533;BMP280;4304;53.876;10.662;2022-07-12T02:48:12;115475.81;;;-139.81
8533;BMP280;4304;53.876;10.662;2022-07-12T02:50:41;115475.81;;;-139.81
8533;BMP280;4304;53.876;10.662;2022-07-12T02:53:08;115475.81;;;-139.81
8533;BMP280;4304;53.876;10.662;2022-07-12T02:55:34;115475.81;;;-139.81
8533;BMP280;4304;53.876;10.662;2022-07-12T02:58:00;115475.81;;;-139.81
8533;BMP280;4304;53.876;10.662;2022-07-12T03:00:26;115475.81;;;-139.81
8533;BMP280;4304;53.876;10.662;2022-07-12T03:02:52;115475.81;;;-139.81
8533;BMP280;4304;53.876;10.662;2022-07-12T03:05:17;115475.81;;;-139.81
8533;BMP280;4304;53.876;10.662;2022-07-12T03:07:43;115475.81;;;-139.81
8533;BMP280;4304;53.876;10.662;2022-07-12T03:10:08;115475.81;;;-139.81
8533;BMP280;4304;53.876;10.662;2022-07-12T03:12:34;115475.81;;;-139.81
8533;BMP280;4304;53.876;10.662;2022-07-12T03:15:00;115475.81;;;-139.81
8533;BMP280;4304;53.876;10.662;2022-07-12T03:17:26;115475.81;;;-139.81
8533;BMP280;4304;53.876;10.662;2022-07-12T03:19:51;115475.81;;;-139.81
8533;BMP280;4304;53.876;10.662;2022-07-12T03:22:17;115475.81;;;-139.81
8533;BMP280;4304;53.876;10.662;2022-07-12T03:24:42;115475.81;;;-139.81
8533;BMP280;4304;53.876;10.662;2022-07-12T03:27:08;115475.81;;;-139.81
8533;BMP280;4304;53.876;10.662;2022-07-12T03:29:34;115475.81;;;-139.81
8533;BMP280;4304;53.876;10.662;2022-07-12T03:32:00;115475.81;;;-139.81
8533;BMP280;4304;53.876;10.662;2022-07-12T03:34:25;115475.81;;;-139.81
8533;BMP280;4304;53.876;10.662;2022-07-12T03:36:51;115475.81;;;-139.81
8533;BMP280;4304;53.876;10.662;2022-07-12T03:39:16;115475.81;;;-139.81
8533;BMP280;4304;53.876;10.662;2022-07-12T03:41:42;115475.81;;;-139.81
8533;BMP280;4304;53.876;10.662;2022-07-12T03:44:07;115475.81;;;-139.81
8533;BMP280;4304;53.876;10.662;2022-07-12T03:46:33;115475.81;;;-139.81
8533;BMP280;4304;53.876;10.662;2022-07-12T03:48:59;115475.81;;;-139.81
8533;BMP280;4304;53.876;10.662;2022-07-12T03:51:25;115475.81;;;-139.81
8533;BMP280;4304;53.876;10.662;2022-07-12T03:53:51;115475.81;;;-139.81
8533;BMP280;4304;53.876;10.662;2022-07-12T03:56:16;115475.81;;;-139.81
8533;BMP280;4304;53.876;10.662;2022-07-12T03:59:00;115475.81;;;-139.81
8533;BMP280;4304;53.876;10.662;2022-07-12T04:01:26;115735.44;;;-139.81
8533;BMP280;4304;53.876;10.662;2022-07-12T04:03:51;115735.44;;;-139.81
8533;BMP280;4304;53.876;10.662;2022-07-12T04:06:17;115735.44;;;-139.81
8533;BMP280;4304;53.876;10.662;2022-07-12T04:08:42;115735.44;;;-139.81
8533;BMP280;4304;53.876;10.662;2022-07-12T04:11:07;115995.09;;;-139.81
8533;BMP280;4304;53.876;10.662;2022-07-12T04:13:33;115995.09;;;-139.81
8533;BMP280;4304;53.876;10.662;2022-07-12T04:15:59;115995.09;;;-139.81
8533;BMP280;4304;53.876;10.662;2022-07-12T04:18:24;116254.75;;;-139.81
8533;BMP280;4304;53.876;10.662;2022-07-12T04:20:50;116254.75;;;-139.81
8533;BMP280;4304;53.876;10.662;2022-07-12T04:23:15;116514.44;;;-139.81
8533;BMP280;4304;53.876;10.662;2022-07-12T04:25:41;116514.44;;;-139.81
8533;BMP280;4304;53.876;10.662;2022-07-12T04:28:06;116514.44;;;-139.81
8533;BMP280;4304;53.876;10.662;2022-07-12T04:30:32;116514.44;;;-139.81
8533;BMP280;4304;53.876;10.662;2022-07-12T04:32:58;116774.16;;;-139.81
8533;BMP280;4304;53.876;10.662;2022-07-12T04:35:24;116774.16;;;-139.81
8533;BMP280;4304;53.876;10.662;2022-07-12T04:37:49;116774.16;;;-139.81
8533;BMP280;4304;53.876;10.662;2022-07-12T04:40:15;117033.91;;;-139.81
8533;BMP280;4304;53.876;10.662;2022-07-12T04:42:40;117033.91;;;-139.81
8533;BMP280;4304;53.876;10.662;2022-07-12T04:45:06;117033.91;;;-139.81
8533;BMP280;4304;53.876;10.662;2022-07-12T04:47:35;117033.91;;;-139.81
8533;BMP280;4304;53.876;10.662;2022-07-12T04:50:06;117033.91;;;-139.81
8533;BMP280;4304;53.876;10.662;2022-07-12T04:52:32;117033.91;;;-139.81
8533;BMP280;4304;53.876;10.662;2022-07-12T04:54:57;117293.66;;;-139.81
8533;BMP280;4304;53.876;10.662;2022-07-12T04:57:23;117293.66;;;-139.81
8533;BMP280;4304;53.876;10.662;2022-07-12T04:59:48;117293.66;;;-139.81
8533;BMP280;4304;53.876;10.662;2022-07-12T05:02:14;117293.66;;;-139.81
8533;BMP280;4304;53.876;10.662;2022-07-12T05:04:39;117293.66;;;-139.81
8533;BMP280;4304;53.876;10.662;2022-07-12T05:07:05;117293.66;;;-139.81
8533;BMP280;4304;53.876;10.662;2022-07-12T05:09:30;117293.66;;;-139.81
8533;BMP280;4304;53.876;10.662;2022-07-12T05:11:56;117293.66;;;-139.81
8533;BMP280;4304;53.876;10.662;2022-07-12T05:14:21;117293.66;;;-139.81
8533;BMP280;4304;53.876;10.662;2022-07-12T05:16:47;117293.66;;;-139.81
8533;BMP280;4304;53.876;10.662;2022-07-12T05:19:12;117033.91;;;-139.81
8533;BMP280;4304;53.876;10.662;2022-07-12T05:21:38;117033.91;;;-139.81
8533;BMP280;4304;53.876;10.662;2022-07-12T05:24:06;117033.91;;;-139.81
8533;BMP280;4304;53.876;10.662;2022-07-12T05:26:32;117033.91;;;-139.81
8533;BMP280;4304;53.876;10.662;2022-07-12T05:28:57;117033.91;;;-139.81
8533;BMP280;4304;53.876;10.662;2022-07-12T05:31:23;117033.91;;;-139.81
8533;BMP280;4304;53.876;10.662;2022-07-12T05:33:49;116774.16;;;-139.81
8533;BMP280;4304;53.876;10.662;2022-07-12T05:36:14;116774.16;;;-139.81
8533;BMP280;4304;53.876;10.662;2022-07-12T05:38:40;116774.16;;;-139.81
8533;BMP280;4304;53.876;10.662;2022-07-12T05:41:05;116774.16;;;-139.81
8533;BMP280;4304;53.876;10.662;2022-07-12T05:43:31;116774.16;;;-139.81
8533;BMP280;4304;53.876;10.662;2022-07-12T05:45:56;116774.16;;;-139.81
8533;BMP280;4304;53.876;10.662;2022-07-12T05:48:22;116774.16;;;-139.81
8533;BMP280;4304;53.876;10.662;2022-07-12T05:50:47;116514.44;;;-139.81
8533;BMP280;4304;53.876;10.662;2022-07-12T05:53:13;116774.16;;;-139.81
8533;BMP280;4304;53.876;10.662;2022-07-12T05:55:51;116774.16;;;-139.81
8533;BMP280;4304;53.876;10.662;2022-07-12T05:58:18;116774.16;;;-139.81
8533;BMP280;4304;53.876;10.662;2022-07-12T06:00:50;116774.16;;;-139.81
8533;BMP280;4304;53.876;10.662;2022-07-12T06:03:16;116774.16;;;-139.81
8533;BMP280;4304;53.876;10.662;2022-07-12T06:05:41;116774.16;;;-139.81
8533;BMP280;4304;53.876;10.662;2022-07-12T06:08:07;116774.16;;;-139.81
8533;BMP280;4304;53.876;10.662;2022-07-12T06:10:32;116774.16;;;-139.81
8533;BMP280;4304;53.876;10.662;2022-07-12T06:12:59;116774.16;;;-139.81
8533;BMP280;4304;53.876;10.662;2022-07-12T06:15:24;116774.16;;;-139.81
8533;BMP280;4304;53.876;10.662;2022-07-12T06:17:50;116774.16;;;-139.81
8533;BMP280;4304;53.876;10.662;2022-07-12T06:20:16;116774.16;;;-139.81
8533;BMP280;4304;53.876;10.662;2022-07-12T06:22:41;116774.16;;;-139.81
8533;BMP280;4304;53.876;10.662;2022-07-12T06:25:07;116774.16;;;-139.81
8533;BMP280;4304;53.876;10.662;2022-07-12T06:27:33;116774.16;;;-139.81
8533;BMP280;4304;53.876;10.662;2022-07-12T06:29:58;116774.16;;;-139.81
8533;BMP280;4304;53.876;10.662;2022-07-12T06:32:24;116774.16;;;-139.81
8533;BMP280;4304;53.876;10.662;2022-07-12T06:34:49;117033.91;;;-139.81
8533;BMP280;4304;53.876;10.662;2022-07-12T06:37:15;117033.91;;;-139.81
8533;BMP280;4304;53.876;10.662;2022-07-12T06:39:40;117033.91;;;-139.81
8533;BMP280;4304;53.876;10.662;2022-07-12T06:42:06;117033.91;;;-139.81
8533;BMP280;4304;53.876;10.662;2022-07-12T06:44:32;117033.91;;;-139.81
8533;BMP280;4304;53.876;10.662;2022-07-12T06:46:58;117033.91;;;-139.81
8533;BMP280;4304;53.876;10.662;2022-07-12T06:49:24;117033.91;;;-139.81
8533;BMP280;4304;53.876;10.662;2022-07-12T06:51:50;117033.91;;;-139.81
8533;BMP280;4304;53.876;10.662;2022-07-12T06:54:16;117293.66;;;-139.81
8533;BMP280;4304;53.876;10.662;2022-07-12T06:56:42;117293.66;;;-139.81
8533;BMP280;4304;53.876;10.662;2022-07-12T06:59:07;117293.66;;;-139.81
8533;BMP280;4304;53.876;10.662;2022-07-12T07:01:36;117293.66;;;-139.81
8533;BMP280;4304;53.876;10.662;2022-07-12T07:04:02;117293.66;;;-139.81
8533;BMP280;4304;53.876;10.662;2022-07-12T07:06:27;117295.69;;;-139.81
8533;BMP280;4304;53.876;10.662;2022-07-12T07:08:53;117295.69;;;-139.81
8533;BMP280;4304;53.876;10.662;2022-07-12T07:11:18;117295.69;;;-139.81
8533;BMP280;4304;53.876;10.662;2022-07-12T07:13:44;117295.69;;;-139.81
8533;BMP280;4304;53.876;10.662;2022-07-12T07:16:09;117295.69;;;-139.81
8533;BMP280;4304;53.876;10.662;2022-07-12T07:18:34;117295.69;;;-139.81
8533;BMP280;4304;53.876;10.662;2022-07-12T07:21:01;117295.69;;;-139.81
8533;BMP280;4304;53.876;10.662;2022-07-12T07:23:27;117295.69;;;-139.81
8533;BMP280;4304;53.876;10.662;2022-07-12T07:25:52;117295.69;;;-139.81
8533;BMP280;4304;53.876;10.662;2022-07-12T07:28:17;117295.69;;;-139.81
8533;BMP280;4304;53.876;10.662;2022-07-12T07:30:43;117295.69;;;-139.81
8533;BMP280;4304;53.876;10.662;2022-07-12T07:33:25;117295.69;;;-139.81
8533;BMP280;4304;53.876;10.662;2022-07-12T07:35:51;117295.69;;;-139.81
8533;BMP280;4304;53.876;10.662;2022-07-12T07:38:18;117295.69;;;-139.81
8533;BMP280;4304;53.876;10.662;2022-07-12T07:40:44;117293.66;;;-139.81
8533;BMP280;4304;53.876;10.662;2022-07-12T07:43:09;117293.66;;;-139.81
8533;BMP280;4304;53.876;10.662;2022-07-12T07:45:35;117293.66;;;-139.81
8533;BMP280;4304;53.876;10.662;2022-07-12T07:48:01;117293.66;;;-139.81
8533;BMP280;4304;53.876;10.662;2022-07-12T07:50:27;117293.66;;;-139.81
8533;BMP280;4304;53.876;10.662;2022-07-12T07:52:54;117293.66;;;-139.81
8533;BMP280;4304;53.876;10.662;2022-07-12T07:55:20;117293.66;;;-139.81
8533;BMP280;4304;53.876;10.662;2022-07-12T07:57:45;117293.66;;;-139.81
8533;BMP280;4304;53.876;10.662;2022-07-12T08:00:13;117293.66;;;-139.81
8533;BMP280;4304;53.876;10.662;2022-07-12T08:02:40;117293.66;;;-139.81
8533;BMP280;4304;53.876;10.662;2022-07-12T08:05:06;117293.66;;;-139.81
8533;BMP280;4304;53.876;10.662;2022-07-12T08:07:31;117293.66;;;-139.81
8533;BMP280;4304;53.876;10.662;2022-07-12T08:09:57;117293.66;;;-139.81
8533;BMP280;4304;53.876;10.662;2022-07-12T08:12:23;117293.66;;;-139.81
8533;BMP280;4304;53.876;10.662;2022-07-12T08:14:49;117293.66;;;-139.81
8533;BMP280;4304;53.876;10.662;2022-07-12T08:17:15;117295.69;;;-139.81
8533;BMP280;4304;53.876;10.662;2022-07-12T08:19:40;117295.69;;;-139.81
8533;BMP280;4304;53.876;10.662;2022-07-12T08:22:08;117295.69;;;-139.81
8533;BMP280;4304;53.876;10.662;2022-07-12T08:24:34;117295.69;;;-139.81
8533;BMP280;4304;53.876;10.662;2022-07-12T08:27:00;117295.69;;;-139.81
8533;BMP280;4304;53.876;10.662;2022-07-12T08:29:25;117295.69;;;-139.81
8533;BMP280;4304;53.876;10.662;2022-07-12T08:31:51;117295.69;;;-139.81
8533;BMP280;4304;53.876;10.662;2022-07-12T08:34:16;117295.69;;;-139.81
8533;BMP280;4304;53.876;10.662;2022-07-12T08:36:42;117295.69;;;-139.81
8533;BMP280;4304;53.876;10.662;2022-07-12T08:39:07;117295.69;;;-139.81
8533;BMP280;4304;53.876;10.662;2022-07-12T08:41:32;117295.69;;;-139.81
8533;BMP280;4304;53.876;10.662;2022-07-12T08:43:58;117295.69;;;-139.81
8533;BMP280;4304;53.876;10.662;2022-07-12T08:46:23;117295.69;;;-139.81
8533;BMP280;4304;53.876;10.662;2022-07-12T08:48:49;117295.69;;;-139.81
8533;BMP280;4304;53.876;10.662;2022-07-12T08:51:19;117295.69;;;-139.81
8533;BMP280;4304;53.876;10.662;2022-07-12T08:53:44;117295.69;;;-139.81
8533;BMP280;4304;53.876;10.662;2022-07-12T08:56:31;117295.69;;;-139.81
8533;BMP280;4304;53.876;10.662;2022-07-12T08:59:18;117295.69;;;-139.81
8533;BMP280;4304;53.876;10.662;2022-07-12T09:01:52;117295.69;;;-139.81
8533;BMP280;4304;53.876;10.662;2022-07-12T09:04:23;117295.69;;;-139.81
8533;BMP280;4304;53.876;10.662;2022-07-12T09:06:49;117295.69;;;-139.81
8533;BMP280;4304;53.876;10.662;2022-07-12T09:09:33;117295.69;;;-139.81
8533;BMP280;4304;53.876;10.662;2022-07-12T09:11:59;117295.69;;;-139.81
8533;BMP280;4304;53.876;10.662;2022-07-12T09:14:25;117295.69;;;-139.81
8533;BMP280;4304;53.876;10.662;2022-07-12T09:17:01;117295.69;;;-139.81
8533;BMP280;4304;53.876;10.662;2022-07-12T09:19:28;117295.69;;;-139.81
8533;BMP280;4304;53.876;10.662;2022-07-12T09:21:54;117295.69;;;-139.81
8533;BMP280;4304;53.876;10.662;2022-07-12T09:24:23;117295.69;;;-139.81
8533;BMP280;4304;53.876;10.662;2022-07-12T09:27:10;117295.69;;;-139.81
8533;BMP280;4304;53.876;10.662;2022-07-12T09:29:47;117295.69;;;-139.81
8533;BMP280;4304;53.876;10.662;2022-07-12T09:32:13;117295.69;;;-139.81
8533;BMP280;4304;53.876;10.662;2022-07-12T09:34:58;117295.69;;;-139.81
8533;BMP280;4304;53.876;10.662;2022-07-12T09:37:42;117295.69;;;-139.81
8533;BMP280;4304;53.876;10.662;2022-07-12T09:40:08;117295.69;;;-139.81
8533;BMP280;4304;53.876;10.662;2022-07-12T09:42:34;117295.69;;;-139.81
8533;BMP280;4304;53.876;10.662;2022-07-12T09:45:00;117295.69;;;-139.81
8533;BMP280;4304;53.876;10.662;2022-07-12T09:47:26;117295.69;;;-139.81
8533;BMP280;4304;53.876;10.662;2022-07-12T09:49:51;117295.69;;;-139.81
8533;BMP280;4304;53.876;10.662;2022-07-12T09:52:25;117295.69;;;-139.81
8533;BMP280;4304;53.876;10.662;2022-07-12T09:54:53;117295.69;;;-139.81
8533;BMP280;4304;53.876;10.662;2022-07-12T09:57:30;117295.69;;;-139.81
8533;BMP280;4304;53.876;10.662;2022-07-12T09:59:57;117295.69;;;-139.81
8533;BMP280;4304;53.876;10.662;2022-07-12T10:02:24;117295.69;;;-139.81
8533;BMP280;4304;53.876;10.662;2022-07-12T10:04:51;117295.69;;;-139.81
8533;BMP280;4304;53.876;10.662;2022-07-12T10:07:16;117295.69;;;-139.81
8533;BMP280;4304;53.876;10.662;2022-07-12T10:09:47;117295.69;;;-139.81
8533;BMP280;4304;53.876;10.662;2022-07-12T10:12:17;117295.69;;;-139.81
8533;BMP280;4304;53.876;10.662;2022-07-12T10:14:44;117295.69;;;-139.81
8533;BMP280;4304;53.876;10.662;2022-07-12T10:17:10;117295.69;;;-139.81
8533;BMP280;4304;53.876;10.662;2022-07-12T10:19:37;117295.69;;;-139.81
8533;BMP280;4304;53.876;10.662;2022-07-12T10:22:04;117295.69;;;-139.81
8533;BMP280;4304;53.876;10.662;2022-07-12T10:29:48;117295.69;;;-139.81
8533;BMP280;4304;53.876;10.662;2022-07-12T10:32:37;117295.69;;;-139.81
8533;BMP280;4304;53.876;10.662;2022-07-12T10:35:11;117295.69;;;-139.81
8533;BMP280;4304;53.876;10.662;2022-07-12T10:37:37;117295.69;;;-139.81
8533;BMP280;4304;53.876;10.662;2022-07-12T10:40:21;117295.69;;;-139.81
8533;BMP280;4304;53.876;10.662;2022-07-12T10:43:19;117295.69;;;-139.81
8533;BMP280;4304;53.876;10.662;2022-07-12T10:45:48;117295.69;;;-139.81
8533;BMP280;4304;53.876;10.662;2022-07-12T10:50:49;117295.69;;;-139.81
8533;BMP280;4304;53.876;10.662;2022-07-12T10:53:28;117295.69;;;-139.81
8533;BMP280;4304;53.876;10.662;2022-07-12T11:01:02;117295.69;;;-139.81
8533;BMP280;4304;53.876;10.662;2022-07-12T11:03:54;117295.69;;;-139.81
8533;BMP280;4304;53.876;10.662;2022-07-12T11:06:22;117295.69;;;-139.81
8533;BMP280;4304;53.876;10.662;2022-07-12T11:08:59;117295.69;;;-139.81
8533;BMP280;4304;53.876;10.662;2022-07-12T11:11:34;117295.69;;;-139.81
8533;BMP280;4304;53.876;10.662;2022-07-12T11:14:00;117295.69;;;-139.81
8533;BMP280;4304;53.876;10.662;2022-07-12T11:16:27;117295.69;;;-139.81
8533;BMP280;4304;53.876;10.662;2022-07-12T11:18:53;117295.69;;;-139.81
8533;BMP280;4304;53.876;10.662;2022-07-12T11:21:20;117295.69;;;-139.81
8533;BMP280;4304;53.876;10.662;2022-07-12T11:23:46;117295.69;;;-139.81
8533;BMP280;4304;53.876;10.662;2022-07-12T11:26:13;117295.69;;;-139.81
8533;BMP280;4304;53.876;10.662;2022-07-12T11:28:40;117295.69;;;-139.81
8533;BMP280;4304;53.876;10.662;2022-07-12T11:31:15;117295.69;;;-139.81
8533;BMP280;4304;53.876;10.662;2022-07-12T11:33:46;117295.69;;;-139.81
8533;BMP280;4304;53.876;10.662;2022-07-12T11:36:13;117295.69;;;-139.81
8533;BMP280;4304;53.876;10.662;2022-07-12T11:38:43;117295.69;;;-139.81
8533;BMP280;4304;53.876;10.662;2022-07-12T11:41:09;117295.69;;;-139.81
8533;BMP280;4304;53.876;10.662;2022-07-12T11:43:37;117295.69;;;-139.81
8533;BMP280;4304;53.876;10.662;2022-07-12T11:46:04;117295.69;;;-139.81
8533;BMP280;4304;53.876;10.662;2022-07-12T11:48:30;117295.69;;;-139.81
8533;BMP280;4304;53.876;10.662;2022-07-12T11:51:01;117295.69;;;-139.81
8533;BMP280;4304;53.876;10.662;2022-07-12T11:53:27;117295.69;;;-139.81
8533;BMP280;4304;53.876;10.662;2022-07-12T11:55:55;117295.69;;;-139.81
8533;BMP280;4304;53.876;10.662;2022-07-12T11:58:22;117295.69;;;-139.81
8533;BMP280;4304;53.876;10.662;2022-07-12T12:00:49;117295.69;;;-139.81
8533;BMP280;4304;53.876;10.662;2022-07-12T12:03:16;117295.69;;;-139.81
8533;BMP280;4304;53.876;10.662;2022-07-12T12:05:42;117295.69;;;-139.81
8533;BMP280;4304;53.876;10.662;2022-07-12T12:08:09;117295.69;;;-139.81
8533;BMP280;4304;53.876;10.662;2022-07-12T12:10:39;117295.69;;;-139.81
8533;BMP280;4304;53.876;10.662;2022-07-12T12:13:12;117295.69;;;-139.81
8533;BMP280;4304;53.876;10.662;2022-07-12T12:15:39;117295.69;;;-139.81
8533;BMP280;4304;53.876;10.662;2022-07-12T12:18:06;117295.69;;;-139.81
8533;BMP280;4304;53.876;10.662;2022-07-12T12:20:39;117295.69;;;-139.81
8533;BMP280;4304;53.876;10.662;2022-07-12T12:23:15;117295.69;;;-139.81
8533;BMP280;4304;53.876;10.662;2022-07-12T12:25:41;117295.69;;;-139.81
8533;BMP280;4304;53.876;10.662;2022-07-12T12:28:06;117295.69;;;-139.81
8533;BMP280;4304;53.876;10.662;2022-07-12T12:30:33;117295.69;;;-139.81
8533;BMP280;4304;53.876;10.662;2022-07-12T12:33:02;117295.69;;;-139.81
8533;BMP280;4304;53.876;10.662;2022-07-12T12:35:46;117295.69;;;-139.81
8533;BMP280;4304;53.876;10.662;2022-07-12T12:38:15;117295.69;;;-139.81
8533;BMP280;4304;53.876;10.662;2022-07-12T12:40:49;117295.69;;;-139.81
8533;BMP280;4304;53.876;10.662;2022-07-12T12:43:20;117295.69;;;-139.81
8533;BMP280;4304;53.876;10.662;2022-07-12T12:48:21;117295.69;;;-139.81
8533;BMP280;4304;53.876;10.662;2022-07-12T12:50:49;117295.69;;;-139.81
8533;BMP280;4304;53.876;10.662;2022-07-12T12:53:19;117295.69;;;-139.81
8533;BMP280;4304;53.876;10.662;2022-07-12T12:55:48;117295.69;;;-139.81
8533;BMP280;4304;53.876;10.662;2022-07-12T12:58:14;117295.69;;;-139.81
8533;BMP280;4304;53.876;10.662;2022-07-12T13:00:42;117295.69;;;-139.81
8533;BMP280;4304;53.876;10.662;2022-07-12T13:03:10;117295.69;;;-139.81
8533;BMP280;4304;53.876;10.662;2022-07-12T13:05:37;117295.69;;;-139.81
8533;BMP280;4304;53.876;10.662;2022-07-12T13:08:03;117295.69;;;-139.81
8533;BMP280;4304;53.876;10.662;2022-07-12T13:10:30;117295.69;;;-139.81
8533;BMP280;4304;53.876;10.662;2022-07-12T13:12:56;117295.69;;;-139.81
8533;BMP280;4304;53.876;10.662;2022-07-12T13:15:22;117295.69;;;-139.81
8533;BMP280;4304;53.876;10.662;2022-07-12T13:17:47;117295.69;;;-139.81
8533;BMP280;4304;53.876;10.662;2022-07-12T13:20:13;117295.69;;;-139.81
8533;BMP280;4304;53.876;10.662;2022-07-12T13:22:40;117295.69;;;-139.81
8533;BMP280;4304;53.876;10.662;2022-07-12T13:25:07;117295.69;;;-139.81
8533;BMP280;4304;53.876;10.662;2022-07-12T13:27:33;117295.69;;;-139.81
8533;BMP280;4304;53.876;10.662;2022-07-12T13:29:59;117295.69;;;-139.81
8533;BMP280;4304;53.876;10.662;2022-07-12T13:32:24;117295.69;;;-139.81
8533;BMP280;4304;53.876;10.662;2022-07-12T13:34:52;117295.69;;;-139.81
8533;BMP280;4304;53.876;10.662;2022-07-12T13:37:17;117295.69;;;-139.81
8533;BMP280;4304;53.876;10.662;2022-07-12T13:39:42;117295.69;;;-139.81
8533;BMP280;4304;53.876;10.662;2022-07-12T13:42:27;117295.69;;;-139.81
8533;BMP280;4304;53.876;10.662;2022-07-12T13:44:53;117295.69;;;-139.81
8533;BMP280;4304;53.876;10.662;2022-07-12T13:47:22;117295.69;;;-139.81
8533;BMP280;4304;53.876;10.662;2022-07-12T13:49:49;117295.69;;;-139.81
8533;BMP280;4304;53.876;10.662;2022-07-12T13:52:16;117295.69;;;-139.81
8533;BMP280;4304;53.876;10.662;2022-07-12T13:54:45;117295.69;;;-139.81
8533;BMP280;4304;53.876;10.662;2022-07-12T13:57:11;117295.69;;;-139.81
8533;BMP280;4304;53.876;10.662;2022-07-12T13:59:37;117295.69;;;-139.81
8533;BMP280;4304;53.876;10.662;2022-07-12T14:02:03;117295.69;;;-139.81